Terminal Aerodrome Forecast
Issued by NWS

Home | Current Version | Previous Version | Text Only | Print | Product List | Glossary On
Versions: 1 2 3 4 5 6 7 8 9 10 11 12 13 14 15 16 17 18 19 20 21 22 23 24 25 26 27 28 29 30 31 32 33 34 35 36
000
FTUS45 KPSR 010542
TAFSDL
TAF
KSDL 010542Z 0106/0206 09010KT P6SM VCTS SCT080CB OVC120
      TEMPO 0106/0107 -TSRA BKN080CB
     FM010700 06008KT P6SM VCSH BKN090 OVC150
      TEMPO 0107/0108 -SHRA
     FM010900 12005KT P6SM SCT150 BKN250
     FM012300 23006KT P6SM FEW100 SCT150 SCT250=

USA.gov is the U.S. government's official web portal to all federal, state and local government web resources and services.